createdAt,value
2023-05-17T00:03:07.374Z,9.41
2023-05-17T00:08:09.113Z,9.37
2023-05-17T00:13:10.692Z,9.34
2023-05-17T00:18:12.328Z,9.49
2023-05-17T00:23:14.152Z,9.67
2023-05-17T00:28:15.830Z,9.76
2023-05-17T00:33:17.425Z,9.83
2023-05-17T00:38:19.055Z,9.68
2023-05-17T00:43:20.775Z,9.49
2023-05-17T00:48:22.781Z,9.34
2023-05-17T00:53:26.366Z,9.28
2023-05-17T00:58:28.066Z,9.36
2023-05-17T01:03:29.767Z,9.36
2023-05-17T01:08:32.254Z,9.42
2023-05-17T01:13:42.288Z,9.53
2023-05-17T01:18:58.407Z,9.47
2023-05-17T01:24:28.643Z,9.42
2023-05-17T01:29:32.088Z,9.58
2023-05-17T01:34:35.145Z,9.50
2023-05-17T01:39:37.842Z,9.45
2023-05-17T01:44:48.464Z,9.50
2023-05-17T01:49:54.017Z,9.45
2023-05-17T01:55:10.572Z,9.63
2023-05-17T02:00:13.856Z,9.76
2023-05-17T02:05:20.232Z,9.90
2023-05-17T02:10:22.000Z,9.98
2023-05-17T02:15:23.593Z,9.95
2023-05-17T02:20:25.254Z,9.96
2023-05-17T02:25:27.014Z,9.82
2023-05-17T02:30:28.854Z,9.65
2023-05-17T02:35:31.662Z,9.43
2023-05-17T02:40:33.324Z,9.26
2023-05-17T02:45:37.582Z,9.19
2023-05-17T02:50:40.207Z,9.12
2023-05-17T02:55:41.767Z,9.01
2023-05-17T03:00:46.593Z,8.85
2023-05-17T03:05:49.806Z,8.81
2023-05-17T03:10:51.835Z,8.74
2023-05-17T03:15:53.742Z,8.68
2023-05-17T03:20:55.819Z,8.66
2023-05-17T03:25:57.981Z,8.64
2023-05-17T03:31:01.455Z,8.66
2023-05-17T03:36:06.572Z,8.61
2023-05-17T03:41:08.313Z,8.61
2023-05-17T03:46:10.231Z,8.64
2023-05-17T03:51:12.335Z,8.71
2023-05-17T03:56:14.215Z,8.75
2023-05-17T04:01:16.423Z,8.74
2023-05-17T04:06:18.302Z,8.79
2023-05-17T04:11:20.013Z,8.95
2023-05-17T04:16:21.602Z,9.11
2023-05-17T04:21:23.396Z,9.31
2023-05-17T04:26:26.650Z,9.53
2023-05-17T04:31:28.197Z,9.78
2023-05-17T04:36:29.875Z,10.12
2023-05-17T04:41:31.874Z,10.31
2023-05-17T04:46:34.338Z,10.53
2023-05-17T04:51:36.163Z,10.66
2023-05-17T04:56:37.935Z,10.89
2023-05-17T05:01:44.573Z,10.97
2023-05-17T05:06:46.448Z,11.01
2023-05-17T05:11:49.821Z,11.02
2023-05-17T05:16:51.735Z,11.14
2023-05-17T05:21:53.609Z,11.40
2023-05-17T05:26:55.335Z,11.53
2023-05-17T05:31:58.060Z,11.58
2023-05-17T05:37:00.349Z,11.66
2023-05-17T05:42:02.187Z,12.13
2023-05-17T05:47:04.978Z,11.92
2023-05-17T05:52:06.663Z,11.94
2023-05-17T05:57:08.417Z,11.69
2023-05-17T06:02:10.374Z,11.38
2023-05-17T06:07:12.859Z,11.06
2023-05-17T06:12:14.420Z,10.86
2023-05-17T06:17:15.969Z,11.03
2023-05-17T06:22:17.582Z,11.15
2023-05-17T06:27:20.400Z,11.29
2023-05-17T06:32:21.991Z,11.77
2023-05-17T06:37:24.505Z,12.41
2023-05-17T06:42:26.043Z,12.86
2023-05-17T06:47:27.645Z,13.11
2023-05-17T06:52:29.407Z,13.72
2023-05-17T06:57:31.212Z,14.75
2023-05-17T07:02:34.599Z,15.53
2023-05-17T07:07:36.490Z,16.27
2023-05-17T07:12:38.052Z,16.42
2023-05-17T07:17:40.412Z,16.73
2023-05-17T07:22:42.172Z,17.38
2023-05-17T07:27:43.703Z,17.84
2023-05-17T07:32:45.417Z,16.45
2023-05-17T07:37:46.995Z,15.03
2023-05-17T07:42:48.721Z,14.90
2023-05-17T07:47:50.387Z,15.17
2023-05-17T07:52:52.051Z,15.63
2023-05-17T07:57:53.700Z,15.16
2023-05-17T08:02:56.763Z,15.82
2023-05-17T08:07:58.427Z,14.91
2023-05-17T08:13:00.043Z,18.18
2023-05-17T08:18:04.413Z,17.01
2023-05-17T08:23:06.509Z,18.88
2023-05-17T08:28:08.332Z,19.42
2023-05-17T08:33:10.363Z,19.76
2023-05-17T08:38:11.947Z,19.61
2023-05-17T08:43:14.643Z,19.39
2023-05-17T08:48:16.453Z,18.10
2023-05-17T08:53:18.475Z,21.09
2023-05-17T08:58:23.709Z,20.64
2023-05-17T09:03:26.644Z,21.21
2023-05-17T09:08:28.517Z,20.47
2023-05-17T09:13:30.187Z,21.49
2023-05-17T09:18:32.541Z,20.75
2023-05-17T09:23:34.166Z,21.88
2023-05-17T09:28:40.633Z,21.03
2023-05-17T09:33:45.763Z,21.01
2023-05-17T09:38:56.548Z,19.38
2023-05-17T09:44:00.648Z,19.07
2023-05-17T09:49:03.343Z,19.75
2023-05-17T09:54:07.154Z,18.71
2023-05-17T09:59:15.968Z,18.85
2023-05-17T10:04:19.764Z,20.24
2023-05-17T10:09:22.883Z,21.70
2023-05-17T10:14:30.330Z,20.16
2023-05-17T10:19:32.863Z,21.07
2023-05-17T10:24:35.794Z,21.61
2023-05-17T10:29:39.131Z,22.71
2023-05-17T10:34:40.804Z,20.97
2023-05-17T10:39:42.388Z,20.54
2023-05-17T10:44:44.036Z,22.43
2023-05-17T10:49:45.676Z,22.71
2023-05-17T10:54:49.075Z,21.07
2023-05-17T10:59:59.482Z,22.69
2023-05-17T11:05:01.372Z,23.29
2023-05-17T11:10:11.608Z,22.32
2023-05-17T11:15:16.558Z,22.55
2023-05-17T11:20:24.145Z,22.57
2023-05-17T11:25:31.646Z,22.81
2023-05-17T11:30:33.531Z,22.34
2023-05-17T11:35:37.219Z,21.60
2023-05-17T11:40:38.879Z,21.98
2023-05-17T11:45:47.980Z,22.68
2023-05-17T11:50:52.189Z,23.77
2023-05-17T11:55:53.771Z,23.89
2023-05-17T12:00:59.144Z,23.27
2023-05-17T12:06:06.921Z,22.63
2023-05-17T12:11:15.634Z,24.16
2023-05-17T12:16:21.778Z,23.17
2023-05-17T12:21:23.541Z,21.48
2023-05-17T12:26:25.178Z,22.06
2023-05-17T12:31:34.683Z,22.69
2023-05-17T12:36:36.838Z,22.42
2023-05-17T12:41:39.718Z,21.72
2023-05-17T12:46:41.443Z,21.68
2023-05-17T12:51:46.598Z,22.02
2023-05-17T12:56:48.227Z,23.74
2023-05-17T13:01:51.692Z,22.87
2023-05-17T13:06:56.202Z,22.57
2023-05-17T13:11:59.529Z,22.69
2023-05-17T13:17:05.299Z,22.93
2023-05-17T13:22:07.372Z,23.22
2023-05-17T13:27:09.661Z,23.60
2023-05-17T13:32:13.125Z,22.51
2023-05-17T13:37:14.710Z,21.76
2023-05-17T13:42:16.297Z,22.82
2023-05-17T13:47:17.886Z,23.72
2023-05-17T13:52:19.434Z,23.91
2023-05-17T13:57:21.058Z,23.34
2023-05-17T14:02:22.657Z,21.81
2023-05-17T14:07:24.365Z,22.52
2023-05-17T14:12:25.935Z,21.75
2023-05-17T14:17:27.559Z,22.82
2023-05-17T14:22:29.211Z,22.55
2023-05-17T14:27:30.819Z,22.91
2023-05-17T14:32:32.443Z,23.79
2023-05-17T14:37:34.211Z,23.78
2023-05-17T14:42:35.909Z,22.30
2023-05-17T14:47:37.534Z,21.87
2023-05-17T14:52:39.122Z,23.05
2023-05-17T14:57:40.685Z,23.48
2023-05-17T15:02:42.255Z,23.60
2023-05-17T15:07:43.928Z,22.56
2023-05-17T15:12:45.493Z,22.15
2023-05-17T15:17:47.050Z,23.00
2023-05-17T15:22:48.638Z,22.74
2023-05-17T15:27:50.244Z,23.89
2023-05-17T15:32:51.811Z,23.20
2023-05-17T15:37:53.600Z,22.58
2023-05-17T15:42:55.220Z,22.33
2023-05-17T15:47:56.775Z,22.22
2023-05-17T15:52:58.943Z,22.87
2023-05-17T15:58:01.845Z,22.73
2023-05-17T16:03:04.219Z,21.13
2023-05-17T16:08:06.751Z,21.14
2023-05-17T16:13:08.396Z,21.10
2023-05-17T16:18:10.167Z,22.68
2023-05-17T16:23:12.232Z,22.47
2023-05-17T16:28:13.763Z,22.06
2023-05-17T16:33:15.481Z,21.91
2023-05-17T16:38:17.110Z,21.79
2023-05-17T16:43:18.785Z,20.07
2023-05-17T16:48:20.681Z,21.45
2023-05-17T16:53:22.436Z,20.92
2023-05-17T16:58:24.026Z,21.23
2023-05-17T17:03:25.700Z,20.55
2023-05-17T17:08:27.295Z,20.83
2023-05-17T17:13:28.843Z,21.11
2023-05-17T17:18:30.381Z,20.07
2023-05-17T17:23:31.924Z,20.15
2023-05-17T17:28:33.645Z,20.19
2023-05-17T17:33:35.939Z,19.81
2023-05-17T17:38:37.798Z,20.32
2023-05-17T17:43:39.416Z,19.46
2023-05-17T17:48:40.991Z,19.49
2023-05-17T17:53:42.581Z,19.14
2023-05-17T17:58:44.177Z,17.86
2023-05-17T18:03:45.745Z,17.97
2023-05-17T18:08:47.305Z,17.77
2023-05-17T18:13:48.875Z,17.39
2023-05-17T18:18:50.519Z,16.94
2023-05-17T18:23:52.153Z,16.56
2023-05-17T18:28:53.709Z,16.40
2023-05-17T18:33:57.208Z,16.32
2023-05-17T18:38:59.001Z,16.21
2023-05-17T18:44:00.699Z,16.04
2023-05-17T18:49:02.272Z,15.86
2023-05-17T18:54:03.902Z,15.78
2023-05-17T18:59:05.531Z,15.62
2023-05-17T19:04:07.141Z,15.50
2023-05-17T19:09:08.708Z,15.38
2023-05-17T19:14:10.428Z,15.22
2023-05-17T19:19:12.136Z,15.00
2023-05-17T19:24:13.803Z,14.68
2023-05-17T19:29:15.371Z,14.61
2023-05-17T19:34:16.929Z,14.43
2023-05-17T19:39:18.600Z,14.31
2023-05-17T19:44:20.285Z,14.11
2023-05-17T19:49:21.886Z,14.07
2023-05-17T19:54:23.438Z,13.96
2023-05-17T19:59:25.178Z,13.87
2023-05-17T20:04:26.715Z,13.69
2023-05-17T20:09:28.364Z,13.62
2023-05-17T20:14:29.974Z,13.52
2023-05-17T20:19:31.653Z,13.35
2023-05-17T20:24:33.533Z,13.32
2023-05-17T20:29:35.158Z,13.25
2023-05-17T20:34:36.718Z,13.12
2023-05-17T20:39:38.294Z,13.04
2023-05-17T20:44:39.887Z,12.91
2023-05-17T20:49:41.413Z,12.84
2023-05-17T20:54:43.047Z,12.70
2023-05-17T20:59:44.585Z,12.63
2023-05-17T21:04:46.244Z,12.46
2023-05-17T21:09:47.891Z,12.27
2023-05-17T21:14:59.846Z,12.21
2023-05-17T21:20:10.184Z,11.95
2023-05-17T21:25:11.774Z,11.89
2023-05-17T21:30:13.447Z,11.76
2023-05-17T21:35:15.047Z,11.57
2023-05-17T21:40:16.726Z,11.59
2023-05-17T21:45:18.302Z,11.53
2023-05-17T21:50:19.959Z,11.41
2023-05-17T21:55:21.584Z,11.26
2023-05-17T22:00:23.131Z,11.41
2023-05-17T22:05:24.730Z,11.41
2023-05-17T22:10:26.362Z,11.36
2023-05-17T22:15:28.054Z,11.18
2023-05-17T22:20:29.967Z,11.26
2023-05-17T22:25:32.300Z,11.15
2023-05-17T22:30:34.199Z,11.09
2023-05-17T22:35:36.060Z,11.04
2023-05-17T22:40:37.742Z,10.88
2023-05-17T22:45:41.420Z,10.78
2023-05-17T22:50:43.107Z,10.56
2023-05-17T22:55:44.834Z,10.45
2023-05-17T23:00:47.009Z,10.39
2023-05-17T23:05:48.770Z,10.30
2023-05-17T23:10:50.423Z,10.15
2023-05-17T23:15:52.320Z,10.14
2023-05-17T23:20:53.921Z,10.08
2023-05-17T23:25:55.810Z,9.75
2023-05-17T23:30:57.422Z,9.69
2023-05-17T23:35:59.073Z,9.59
2023-05-17T23:41:00.713Z,9.15
2023-05-17T23:46:02.356Z,8.89
2023-05-17T23:51:04.462Z,8.77
2023-05-17T23:56:06.429Z,8.45
